Time;durP1;ratioP1;P1;durP2;ratioP2;P2;SDS_P1;SDS_P2;PMS_P1;PMS_P2;Temp;Humidity;BMP_temperature;BMP_pressure;BME280_temperature;BME280_humidity;BME280_pressure;Samples;Min_cycle;Max_cycle;Signal;HPM_P1;HPM_P2
2023/01/29 00:04:31;;;;;;;3.17;0.70;;;;;;;;;;20838480;28;20050;-59
2023/01/29 00:14:53;;;;;;;1.42;0.75;;;;;;;;;;20835022;28;20049;-57
2023/01/29 00:25:15;;;;;;;1.58;1.00;;;;;;;;;;20836230;28;20058;-58
2023/01/29 00:35:39;;;;;;;1.73;0.82;;;;;;;;;;20833719;28;20061;-60
2023/01/29 00:46:01;;;;;;;2.45;0.80;;;;;;;;;;20833193;28;20080;-58
2023/01/29 00:56:22;;;;;;;1.48;0.70;;;;;;;;;;20830381;28;20056;-57
2023/01/29 01:06:44;;;;;;;2.00;0.82;;;;;;;;;;20830743;28;20056;-61
2023/01/29 01:16:59;;;;;;;2.08;0.65;;;;;;;;;;20830411;28;20136;-61
2023/01/29 01:27:07;;;;;;;2.60;0.90;;;;;;;;;;20830297;28;20132;-64
2023/01/29 01:37:24;;;;;;;3.95;0.82;;;;;;;;;;20831195;28;20053;-61
2023/01/29 01:47:30;;;;;;;0.85;0.47;;;;;;;;;;20830075;28;20144;-60
2023/01/29 01:57:32;;;;;;;1.60;0.63;;;;;;;;;;20829722;28;20137;-61
2023/01/29 02:18:05;;;;;;;;;;;;;;;;;;20845864;28;20057;-57
2023/01/29 02:28:35;;;;;;;1.25;0.70;;;;;;;;;;20843543;28;20066;-59
2023/01/29 02:39:16;;;;;;;1.10;0.57;;;;;;;;;;20842304;28;20061;-61
2023/01/29 02:49:17;;;;;;;;;;;;;;;;;;20841964;28;20057;-57
2023/01/29 02:59:41;;;;;;;4.72;0.82;;;;;;;;;;20841399;28;19920;-61
2023/01/29 03:09:52;;;;;;;2.67;1.13;;;;;;;;;;20840612;28;20053;-57
2023/01/29 03:20:19;;;;;;;2.60;1.15;;;;;;;;;;20838907;28;20053;-58
2023/01/29 03:41:22;;;;;;;3.38;1.38;;;;;;;;;;20839125;28;20531;-60
2023/01/29 03:51:54;;;;;;;5.38;2.33;;;;;;;;;;20836454;28;20106;-60
2023/01/29 04:02:12;;;;;;;4.63;1.88;;;;;;;;;;20836985;28;20054;-57
2023/01/29 04:12:19;;;;;;;4.68;1.92;;;;;;;;;;20836074;28;20494;-59
2023/01/29 04:22:44;;;;;;;4.72;1.83;;;;;;;;;;20833020;28;20049;-57
2023/01/29 04:33:12;;;;;;;6.00;2.97;;;;;;;;;;20832544;28;20054;-56
2023/01/29 04:43:17;;;;;;;4.25;2.40;;;;;;;;;;20833415;28;20118;-57
2023/01/29 04:54:00;;;;;;;5.32;2.45;;;;;;;;;;20831018;28;20061;-58
2023/01/29 05:04:04;;;;;;;4.88;2.28;;;;;;;;;;20823043;28;20103;-58
2023/01/29 05:14:11;;;;;;;3.95;1.63;;;;;;;;;;20822695;28;20417;-58
2023/01/29 05:24:25;;;;;;;5.57;2.10;;;;;;;;;;20821821;28;20131;-57
2023/01/29 05:34:35;;;;;;;2.53;1.67;;;;;;;;;;20824865;28;20438;-57
2023/01/29 05:44:56;;;;;;;5.00;1.70;;;;;;;;;;20835821;28;20068;-57
2023/01/29 05:55:01;;;;;;;3.25;1.73;;;;;;;;;;20846015;28;20080;-58
2023/01/29 06:05:09;;;;;;;3.45;2.00;;;;;;;;;;20846002;28;20470;-57
2023/01/29 06:15:18;;;;;;;4.40;2.15;;;;;;;;;;20844662;28;20088;-60
2023/01/29 06:25:20;;;;;;;4.22;1.88;;;;;;;;;;20844200;28;20053;-59
2023/01/29 06:35:21;;;;;;;3.60;1.92;;;;;;;;;;20841955;28;20482;-58
2023/01/29 06:45:24;;;;;;;3.08;2.10;;;;;;;;;;20840676;28;20045;-60
2023/01/29 06:55:27;;;;;;;2.90;1.48;;;;;;;;;;20839892;28;20060;-59
2023/01/29 07:05:30;;;;;;;4.45;1.90;;;;;;;;;;20839962;28;20049;-60
2023/01/29 07:15:32;;;;;;;3.92;2.03;;;;;;;;;;20840584;28;20405;-60
2023/01/29 07:25:36;;;;;;;4.00;1.75;;;;;;;;;;20839674;28;20404;-60
2023/01/29 07:35:41;;;;;;;2.95;1.60;;;;;;;;;;20837549;28;20049;-60
2023/01/29 07:45:43;;;;;;;2.83;1.70;;;;;;;;;;20836104;28;20053;-59
2023/01/29 07:55:45;;;;;;;6.13;2.67;;;;;;;;;;20836819;28;20053;-57
2023/01/29 08:05:46;;;;;;;2.90;1.90;;;;;;;;;;20836153;28;20045;-56
2023/01/29 08:15:48;;;;;;;6.15;1.95;;;;;;;;;;20834322;28;20060;-57
2023/01/29 08:25:50;;;;;;;3.17;1.90;;;;;;;;;;20835485;28;20206;-57
2023/01/29 08:35:51;;;;;;;4.90;2.45;;;;;;;;;;20833949;28;20049;-59
2023/01/29 08:45:53;;;;;;;4.50;2.08;;;;;;;;;;20832520;28;20045;-59
2023/01/29 08:55:56;;;;;;;5.05;2.03;;;;;;;;;;20832516;28;20068;-57
2023/01/29 09:05:58;;;;;;;4.10;2.00;;;;;;;;;;20832159;28;20053;-60
2023/01/29 09:16:00;;;;;;;4.40;2.40;;;;;;;;;;20831227;28;20056;-57
2023/01/29 09:26:02;;;;;;;4.68;2.20;;;;;;;;;;20830507;28;20398;-61
2023/01/29 09:36:05;;;;;;;2.58;1.23;;;;;;;;;;20830740;28;20425;-61
2023/01/29 09:46:15;;;;;;;1.88;0.70;;;;;;;;;;20829747;28;20076;-57
2023/01/29 09:56:19;;;;;;;1.55;0.70;;;;;;;;;;20829563;28;20089;-58
2023/01/29 10:06:30;;;;;;;1.63;0.73;;;;;;;;;;20830217;28;20081;-59
2023/01/29 10:16:52;;;;;;;2.25;1.30;;;;;;;;;;20828550;28;20123;-59
2023/01/29 10:26:55;;;;;;;1.85;0.63;;;;;;;;;;20828832;28;20053;-58
2023/01/29 10:36:57;;;;;;;1.02;0.70;;;;;;;;;;20841904;28;20505;-58
2023/01/29 10:46:59;;;;;;;1.15;0.65;;;;;;;;;;20841706;28;20521;-58
2023/01/29 10:57:10;;;;;;;1.58;0.65;;;;;;;;;;20841763;28;20060;-57
2023/01/29 11:07:14;;;;;;;1.40;0.85;;;;;;;;;;20841224;28;20052;-58
2023/01/29 11:17:19;;;;;;;3.75;1.25;;;;;;;;;;20839085;28;20112;-60
2023/01/29 11:27:25;;;;;;;2.15;0.95;;;;;;;;;;20838541;28;20056;-58
2023/01/29 11:37:34;;;;;;;1.58;0.75;;;;;;;;;;20840001;28;20060;-59
2023/01/29 11:47:38;;;;;;;4.78;1.23;;;;;;;;;;20837477;28;20050;-58
2023/01/29 11:57:43;;;;;;;3.60;1.23;;;;;;;;;;20837221;28;20394;-58
2023/01/29 12:07:50;;;;;;;1.35;0.98;;;;;;;;;;20835184;28;20049;-57
2023/01/29 12:17:56;;;;;;;4.38;1.35;;;;;;;;;;20834397;28;20099;-58
2023/01/29 12:28:03;;;;;;;2.28;1.00;;;;;;;;;;20834920;28;20053;-58
2023/01/29 12:38:19;;;;;;;2.45;1.10;;;;;;;;;;20832588;28;20053;-60
2023/01/29 12:48:24;;;;;;;5.40;1.35;;;;;;;;;;20832491;28;20505;-58
2023/01/29 12:58:33;;;;;;;2.63;1.50;;;;;;;;;;20831742;28;20057;-59
2023/01/29 13:08:37;;;;;;;2.13;0.93;;;;;;;;;;20831055;28;20077;-58
2023/01/29 13:18:45;;;;;;;2.88;1.25;;;;;;;;;;20830619;28;20065;-58
2023/01/29 13:28:50;;;;;;;2.30;1.00;;;;;;;;;;20830209;28;20045;-59
2023/01/29 13:38:55;;;;;;;1.75;0.80;;;;;;;;;;20829715;28;20049;-58
2023/01/29 13:49:00;;;;;;;1.20;1.00;;;;;;;;;;20829475;28;20127;-59
2023/01/29 13:59:04;;;;;;;2.35;1.33;;;;;;;;;;20830497;28;20069;-58
2023/01/29 14:09:26;;;;;;;1.60;0.90;;;;;;;;;;20840771;28;20053;-58
2023/01/29 14:19:29;;;;;;;2.13;0.88;;;;;;;;;;20843573;28;20054;-57
2023/01/29 14:29:37;;;;;;;4.68;1.05;;;;;;;;;;20844105;28;20050;-58
2023/01/29 14:39:42;;;;;;;3.08;0.85;;;;;;;;;;20843107;28;20107;-57
2023/01/29 14:49:57;;;;;;;1.48;0.80;;;;;;;;;;20841666;28;20077;-58
2023/01/29 15:00:04;;;;;;;2.53;1.10;;;;;;;;;;20841594;28;20114;-57
2023/01/29 15:10:15;;;;;;;1.55;0.88;;;;;;;;;;20841048;28;20098;-59
2023/01/29 15:20:27;;;;;;;1.85;1.23;;;;;;;;;;20839152;28;20122;-59
2023/01/29 15:30:32;;;;;;;2.63;0.90;;;;;;;;;;20839696;28;20049;-57
2023/01/29 15:40:34;;;;;;;2.03;0.90;;;;;;;;;;20837116;28;20062;-59
2023/01/29 15:50:39;;;;;;;0.73;0.55;;;;;;;;;;20837187;28;20517;-59
2023/01/29 16:00:48;;;;;;;1.58;0.90;;;;;;;;;;20835572;28;20136;-58
2023/01/29 16:10:53;;;;;;;1.27;0.70;;;;;;;;;;20834851;28;20053;-58
2023/01/29 16:20:56;;;;;;;1.15;0.75;;;;;;;;;;20835294;28;20045;-57
2023/01/29 16:31:00;;;;;;;1.10;0.90;;;;;;;;;;20833324;28;20053;-59
2023/01/29 16:41:02;;;;;;;0.90;0.50;;;;;;;;;;20834178;28;20048;-57
2023/01/29 16:51:05;;;;;;;2.83;0.80;;;;;;;;;;20832456;28;20046;-61
2023/01/29 17:01:08;;;;;;;2.08;0.80;;;;;;;;;;20832733;28;20061;-58
2023/01/29 17:11:13;;;;;;;2.60;1.48;;;;;;;;;;20830576;28;20075;-59
2023/01/29 17:21:16;;;;;;;1.73;0.93;;;;;;;;;;20829242;28;20049;-61
2023/01/29 17:31:18;;;;;;;2.58;1.35;;;;;;;;;;20832094;28;20053;-59
2023/01/29 17:41:27;;;;;;;4.28;1.98;;;;;;;;;;20837293;28;20049;-59
2023/01/29 17:51:29;;;;;;;2.25;1.00;;;;;;;;;;20845078;28;20046;-60
2023/01/29 18:01:31;;;;;;;3.63;0.93;;;;;;;;;;20846544;28;20453;-57
2023/01/29 18:11:34;;;;;;;1.63;1.10;;;;;;;;;;20845453;28;20478;-58
2023/01/29 18:21:36;;;;;;;2.95;1.10;;;;;;;;;;20845923;28;20132;-60
2023/01/29 18:31:39;;;;;;;1.98;1.00;;;;;;;;;;20842823;28;20057;-58
2023/01/29 18:41:41;;;;;;;2.20;1.17;;;;;;;;;;20843582;28;20128;-58
2023/01/29 18:51:43;;;;;;;3.42;1.08;;;;;;;;;;20840925;28;20057;-57
2023/01/29 19:01:45;;;;;;;2.17;1.02;;;;;;;;;;20841918;28;20052;-58
2023/01/29 19:11:47;;;;;;;1.55;0.75;;;;;;;;;;20841149;28;20132;-58
2023/01/29 19:21:51;;;;;;;1.77;0.95;;;;;;;;;;20840250;28;20149;-60
2023/01/29 19:31:53;;;;;;;2.08;1.30;;;;;;;;;;20839413;28;20053;-60
2023/01/29 19:41:55;;;;;;;2.53;1.35;;;;;;;;;;20838737;28;20046;-58
2023/01/29 19:51:57;;;;;;;5.40;1.27;;;;;;;;;;20836731;28;20057;-59
2023/01/29 20:01:59;;;;;;;3.70;1.52;;;;;;;;;;20835550;28;20045;-58
2023/01/29 20:12:01;;;;;;;4.10;1.70;;;;;;;;;;20835137;28;20049;-61
2023/01/29 20:22:04;;;;;;;2.75;1.77;;;;;;;;;;20835819;28;20147;-58
2023/01/29 20:32:07;;;;;;;3.08;1.50;;;;;;;;;;20834557;28;20454;-59
2023/01/29 20:42:09;;;;;;;2.92;1.52;;;;;;;;;;20834094;28;20041;-59
2023/01/29 20:52:11;;;;;;;3.13;1.80;;;;;;;;;;20831693;28;20088;-60
2023/01/29 21:02:13;;;;;;;5.07;2.42;;;;;;;;;;20833000;28;20440;-60
2023/01/29 21:12:15;;;;;;;4.22;1.90;;;;;;;;;;20832496;28;20096;-60
2023/01/29 21:22:17;;;;;;;3.72;1.90;;;;;;;;;;20832283;28;20409;-60
2023/01/29 21:32:19;;;;;;;2.97;1.80;;;;;;;;;;20829303;28;20544;-58
2023/01/29 21:52:42;;;;;;;;;;;;;;;;;;20830249;28;20417;-58
2023/01/29 22:02:44;;;;;;;4.57;1.73;;;;;;;;;;20830596;28;20292;-58
2023/01/29 22:12:46;;;;;;;3.47;1.40;;;;;;;;;;20830134;28;20049;-58
2023/01/29 22:22:48;;;;;;;2.90;1.55;;;;;;;;;;20829944;28;20045;-60
2023/01/29 22:32:50;;;;;;;4.63;1.80;;;;;;;;;;20843124;28;20049;-58
2023/01/29 22:42:52;;;;;;;4.68;1.73;;;;;;;;;;20844158;28;20484;-58
2023/01/29 22:52:54;;;;;;;3.45;1.80;;;;;;;;;;20842153;28;20049;-60
2023/01/29 23:02:56;;;;;;;3.00;1.75;;;;;;;;;;20841363;28;20104;-59
2023/01/29 23:12:59;;;;;;;3.92;2.10;;;;;;;;;;20841962;28;20103;-58
2023/01/29 23:23:02;;;;;;;4.18;2.10;;;;;;;;;;20841356;28;20107;-60
2023/01/29 23:33:04;;;;;;;4.32;2.25;;;;;;;;;;20840222;28;20061;-59
2023/01/29 23:43:06;;;;;;;5.20;2.03;;;;;;;;;;20836715;28;20049;-61
2023/01/29 23:53:28;;;;;;;2.22;1.80;;;;;;;;;;20836959;28;20057;-61
